sensor_id;sensor_type;location;lat;lon;timestamp;temperature;humidity
76104;HTU21D;64831;44.870;37.336;2022-11-20T00:01:23;13.49;77.64
76104;HTU21D;64831;44.870;37.336;2022-11-20T00:03:51;13.44;77.58
76104;HTU21D;64831;44.870;37.336;2022-11-20T00:06:20;13.39;77.50
76104;HTU21D;64831;44.870;37.336;2022-11-20T00:08:47;13.32;77.53
76104;HTU21D;64831;44.870;37.336;2022-11-20T00:11:21;13.25;77.59
76104;HTU21D;64831;44.870;37.336;2022-11-20T00:13:50;13.19;77.69
76104;HTU21D;64831;44.870;37.336;2022-11-20T00:16:19;13.14;77.67
76104;HTU21D;64831;44.870;37.336;2022-11-20T00:18:45;13.10;77.76
76104;HTU21D;64831;44.870;37.336;2022-11-20T00:21:23;13.07;77.89
76104;HTU21D;64831;44.870;37.336;2022-11-20T00:23:51;13.06;78.03
76104;HTU21D;64831;44.870;37.336;2022-11-20T00:26:18;13.07;78.05
76104;HTU21D;64831;44.870;37.336;2022-11-20T00:28:53;13.06;78.07
76104;HTU21D;64831;44.870;37.336;2022-11-20T00:31:19;13.08;78.09
76104;HTU21D;64831;44.870;37.336;2022-11-20T00:33:45;13.10;78.11
76104;HTU21D;64831;44.870;37.336;2022-11-20T00:36:13;13.12;78.12
76104;HTU21D;64831;44.870;37.336;2022-11-20T00:38:40;13.16;78.09
76104;HTU21D;64831;44.870;37.336;2022-11-20T00:41:08;13.18;78.01
76104;HTU21D;64831;44.870;37.336;2022-11-20T00:43:34;13.18;78.01
76104;HTU21D;64831;44.870;37.336;2022-11-20T00:46:20;13.19;77.96
76104;HTU21D;64831;44.870;37.336;2022-11-20T00:48:46;13.19;78.01
76104;HTU21D;64831;44.870;37.336;2022-11-20T00:51:18;13.22;77.92
76104;HTU21D;64831;44.870;37.336;2022-11-20T00:53:44;13.21;77.92
76104;HTU21D;64831;44.870;37.336;2022-11-20T00:56:12;13.18;77.92
76104;HTU21D;64831;44.870;37.336;2022-11-20T00:58:40;13.19;78.01
76104;HTU21D;64831;44.870;37.336;2022-11-20T01:01:25;13.19;78.01
76104;HTU21D;64831;44.870;37.336;2022-11-20T01:03:53;13.21;78.03
76104;HTU21D;64831;44.870;37.336;2022-11-20T01:06:24;13.21;78.04
76104;HTU21D;64831;44.870;37.336;2022-11-20T01:08:55;13.21;78.11
76104;HTU21D;64831;44.870;37.336;2022-11-20T01:11:24;13.23;78.11
76104;HTU21D;64831;44.870;37.336;2022-11-20T01:13:54;13.23;78.20
76104;HTU21D;64831;44.870;37.336;2022-11-20T01:16:24;13.23;78.34
76104;HTU21D;64831;44.870;37.336;2022-11-20T01:18:53;13.26;78.43
76104;HTU21D;64831;44.870;37.336;2022-11-20T01:21:28;13.31;78.44
76104;HTU21D;64831;44.870;37.336;2022-11-20T01:23:55;13.31;78.44
76104;HTU21D;64831;44.870;37.336;2022-11-20T01:26:29;13.33;78.37
76104;HTU21D;64831;44.870;37.336;2022-11-20T01:28:56;13.33;78.35
76104;HTU21D;64831;44.870;37.336;2022-11-20T01:31:25;13.34;78.37
76104;HTU21D;64831;44.870;37.336;2022-11-20T01:33:53;13.35;78.35
76104;HTU21D;64831;44.870;37.336;2022-11-20T01:36:22;13.38;78.27
76104;HTU21D;64831;44.870;37.336;2022-11-20T01:38:51;13.37;78.19
76104;HTU21D;64831;44.870;37.336;2022-11-20T01:41:18;13.35;78.16
76104;HTU21D;64831;44.870;37.336;2022-11-20T01:44:04;13.34;78.18
76104;HTU21D;64831;44.870;37.336;2022-11-20T01:46:34;13.31;78.17
76104;HTU21D;64831;44.870;37.336;2022-11-20T01:49:17;13.31;78.31
76104;HTU21D;64831;44.870;37.336;2022-11-20T01:51:56;13.31;78.37
76104;HTU21D;64831;44.870;37.336;2022-11-20T01:54:40;13.31;78.46
76104;HTU21D;64831;44.870;37.336;2022-11-20T01:57:10;13.32;78.79
76104;HTU21D;64831;44.870;37.336;2022-11-20T01:59:45;13.35;79.08
76104;HTU21D;64831;44.870;37.336;2022-11-20T02:02:17;13.38;79.28
76104;HTU21D;64831;44.870;37.336;2022-11-20T02:04:44;13.43;79.24
76104;HTU21D;64831;44.870;37.336;2022-11-20T02:07:10;13.45;79.12
76104;HTU21D;64831;44.870;37.336;2022-11-20T02:09:36;13.48;79.18
76104;HTU21D;64831;44.870;37.336;2022-11-20T02:12:03;13.49;79.14
76104;HTU21D;64831;44.870;37.336;2022-11-20T02:14:29;13.58;79.88
76104;HTU21D;64831;44.870;37.336;2022-11-20T02:16:55;13.67;80.50
76104;HTU21D;64831;44.870;37.336;2022-11-20T02:19:30;13.73;80.18
76104;HTU21D;64831;44.870;37.336;2022-11-20T02:24:39;13.76;79.60
76104;HTU21D;64831;44.870;37.336;2022-11-20T02:27:11;13.77;79.36
76104;HTU21D;64831;44.870;37.336;2022-11-20T02:29:55;13.76;79.14
76104;HTU21D;64831;44.870;37.336;2022-11-20T02:34:48;13.70;79.02
76104;HTU21D;64831;44.870;37.336;2022-11-20T02:37:14;13.69;79.01
76104;HTU21D;64831;44.870;37.336;2022-11-20T02:39:41;13.70;79.04
76104;HTU21D;64831;44.870;37.336;2022-11-20T02:42:07;13.69;79.00
76104;HTU21D;64831;44.870;37.336;2022-11-20T02:44:33;13.68;79.01
76104;HTU21D;64831;44.870;37.336;2022-11-20T02:46:59;13.71;79.40
76104;HTU21D;64831;44.870;37.336;2022-11-20T02:49:25;13.74;79.43
76104;HTU21D;64831;44.870;37.336;2022-11-20T02:51:51;13.77;79.68
76104;HTU21D;64831;44.870;37.336;2022-11-20T02:54:17;13.78;79.51
76104;HTU21D;64831;44.870;37.336;2022-11-20T02:56:43;13.79;79.34
76104;HTU21D;64831;44.870;37.336;2022-11-20T02:59:09;13.76;79.30
76104;HTU21D;64831;44.870;37.336;2022-11-20T03:01:35;13.79;79.54
76104;HTU21D;64831;44.870;37.336;2022-11-20T03:04:02;13.83;79.75
76104;HTU21D;64831;44.870;37.336;2022-11-20T03:06:28;13.90;80.26
76104;HTU21D;64831;44.870;37.336;2022-11-20T03:08:54;13.98;80.81
76104;HTU21D;64831;44.870;37.336;2022-11-20T03:11:20;14.11;81.36
76104;HTU21D;64831;44.870;37.336;2022-11-20T03:13:46;14.25;81.84
76104;HTU21D;64831;44.870;37.336;2022-11-20T03:16:17;14.36;81.61
76104;HTU21D;64831;44.870;37.336;2022-11-20T03:18:43;14.41;81.42
76104;HTU21D;64831;44.870;37.336;2022-11-20T03:21:10;14.43;81.07
76104;HTU21D;64831;44.870;37.336;2022-11-20T03:23:37;14.45;81.32
76104;HTU21D;64831;44.870;37.336;2022-11-20T03:26:24;14.55;81.39
76104;HTU21D;64831;44.870;37.336;2022-11-20T03:28:55;14.63;81.48
76104;HTU21D;64831;44.870;37.336;2022-11-20T03:31:25;14.73;81.72
76104;HTU21D;64831;44.870;37.336;2022-11-20T03:33:52;14.83;81.55
76104;HTU21D;64831;44.870;37.336;2022-11-20T03:36:19;14.86;81.24
76104;HTU21D;64831;44.870;37.336;2022-11-20T03:38:45;14.91;80.94
76104;HTU21D;64831;44.870;37.336;2022-11-20T03:41:18;14.93;80.68
76104;HTU21D;64831;44.870;37.336;2022-11-20T03:43:49;14.92;80.31
76104;HTU21D;64831;44.870;37.336;2022-11-20T03:46:15;14.86;79.98
76104;HTU21D;64831;44.870;37.336;2022-11-20T03:48:41;14.79;79.79
76104;HTU21D;64831;44.870;37.336;2022-11-20T03:51:12;14.71;79.61
76104;HTU21D;64831;44.870;37.336;2022-11-20T03:53:40;14.66;79.45
76104;HTU21D;64831;44.870;37.336;2022-11-20T03:56:07;14.58;79.44
76104;HTU21D;64831;44.870;37.336;2022-11-20T03:58:34;14.59;80.02
76104;HTU21D;64831;44.870;37.336;2022-11-20T04:03:35;14.66;79.98
76104;HTU21D;64831;44.870;37.336;2022-11-20T04:06:06;14.72;80.33
76104;HTU21D;64831;44.870;37.336;2022-11-20T04:08:32;14.83;80.50
76104;HTU21D;64831;44.870;37.336;2022-11-20T04:11:19;14.98;80.56
76104;HTU21D;64831;44.870;37.336;2022-11-20T04:13:50;15.14;80.49
76104;HTU21D;64831;44.870;37.336;2022-11-20T04:16:17;15.26;80.35
76104;HTU21D;64831;44.870;37.336;2022-11-20T04:18:43;15.36;80.21
76104;HTU21D;64831;44.870;37.336;2022-11-20T04:21:09;15.44;80.07
76104;HTU21D;64831;44.870;37.336;2022-11-20T04:23:36;15.54;80.11
76104;HTU21D;64831;44.870;37.336;2022-11-20T04:26:10;15.60;79.98
76104;HTU21D;64831;44.870;37.336;2022-11-20T04:28:37;15.66;79.93
76104;HTU21D;64831;44.870;37.336;2022-11-20T04:31:06;15.72;79.91
76104;HTU21D;64831;44.870;37.336;2022-11-20T04:33:33;15.76;79.95
76104;HTU21D;64831;44.870;37.336;2022-11-20T04:36:04;15.78;79.89
76104;HTU21D;64831;44.870;37.336;2022-11-20T04:38:31;15.83;80.01
76104;HTU21D;64831;44.870;37.336;2022-11-20T04:41:01;15.90;80.28
76104;HTU21D;64831;44.870;37.336;2022-11-20T04:43:28;15.99;80.43
76104;HTU21D;64831;44.870;37.336;2022-11-20T04:45:55;16.06;80.46
76104;HTU21D;64831;44.870;37.336;2022-11-20T04:48:22;16.15;80.46
76104;HTU21D;64831;44.870;37.336;2022-11-20T04:50:48;16.20;80.40
76104;HTU21D;64831;44.870;37.336;2022-11-20T04:53:14;16.26;80.33
76104;HTU21D;64831;44.870;37.336;2022-11-20T04:55:40;16.30;80.32
76104;HTU21D;64831;44.870;37.336;2022-11-20T04:58:06;16.33;80.27
76104;HTU21D;64831;44.870;37.336;2022-11-20T05:00:32;16.37;80.33
76104;HTU21D;64831;44.870;37.336;2022-11-20T05:02:58;16.40;80.35
76104;HTU21D;64831;44.870;37.336;2022-11-20T05:05:24;16.43;80.33
76104;HTU21D;64831;44.870;37.336;2022-11-20T05:07:50;16.47;80.33
76104;HTU21D;64831;44.870;37.336;2022-11-20T05:10:16;16.50;80.30
76104;HTU21D;64831;44.870;37.336;2022-11-20T05:12:42;16.52;80.33
76104;HTU21D;64831;44.870;37.336;2022-11-20T05:15:08;16.57;80.38
76104;HTU21D;64831;44.870;37.336;2022-11-20T05:17:34;16.62;80.36
76104;HTU21D;64831;44.870;37.336;2022-11-20T05:20:00;16.66;80.30
76104;HTU21D;64831;44.870;37.336;2022-11-20T05:22:26;16.66;80.25
76104;HTU21D;64831;44.870;37.336;2022-11-20T05:24:52;16.67;80.26
76104;HTU21D;64831;44.870;37.336;2022-11-20T05:27:18;16.69;80.25
76104;HTU21D;64831;44.870;37.336;2022-11-20T05:29:44;16.71;80.32
76104;HTU21D;64831;44.870;37.336;2022-11-20T05:32:09;16.71;80.40
76104;HTU21D;64831;44.870;37.336;2022-11-20T05:34:36;16.72;80.64
76104;HTU21D;64831;44.870;37.336;2022-11-20T05:37:02;16.71;80.69
76104;HTU21D;64831;44.870;37.336;2022-11-20T05:39:28;16.67;80.85
76104;HTU21D;64831;44.870;37.336;2022-11-20T05:41:54;16.64;80.98
76104;HTU21D;64831;44.870;37.336;2022-11-20T05:44:39;16.59;81.16
76104;HTU21D;64831;44.870;37.336;2022-11-20T05:47:05;16.51;81.43
76104;HTU21D;64831;44.870;37.336;2022-11-20T05:49:31;16.44;81.67
76104;HTU21D;64831;44.870;37.336;2022-11-20T05:51:57;16.42;82.10
76104;HTU21D;64831;44.870;37.336;2022-11-20T05:54:23;16.39;82.43
76104;HTU21D;64831;44.870;37.336;2022-11-20T05:56:49;16.36;82.63
76104;HTU21D;64831;44.870;37.336;2022-11-20T05:59:15;16.34;82.76
76104;HTU21D;64831;44.870;37.336;2022-11-20T06:01:42;16.32;82.83
76104;HTU21D;64831;44.870;37.336;2022-11-20T06:04:08;16.30;82.88
76104;HTU21D;64831;44.870;37.336;2022-11-20T06:06:34;16.29;82.96
76104;HTU21D;64831;44.870;37.336;2022-11-20T06:09:00;16.29;83.07
76104;HTU21D;64831;44.870;37.336;2022-11-20T06:11:26;16.32;83.16
76104;HTU21D;64831;44.870;37.336;2022-11-20T06:13:52;16.33;83.12
76104;HTU21D;64831;44.870;37.336;2022-11-20T06:16:19;16.35;82.68
76104;HTU21D;64831;44.870;37.336;2022-11-20T06:18:46;16.35;82.13
76104;HTU21D;64831;44.870;37.336;2022-11-20T06:21:14;16.33;82.03
76104;HTU21D;64831;44.870;37.336;2022-11-20T06:23:41;16.33;81.93
76104;HTU21D;64831;44.870;37.336;2022-11-20T06:26:12;16.34;81.77
76104;HTU21D;64831;44.870;37.336;2022-11-20T06:28:38;16.33;81.74
76104;HTU21D;64831;44.870;37.336;2022-11-20T06:31:05;16.36;81.49
76104;HTU21D;64831;44.870;37.336;2022-11-20T06:33:31;16.39;81.27
76104;HTU21D;64831;44.870;37.336;2022-11-20T06:35:59;16.42;81.13
76104;HTU21D;64831;44.870;37.336;2022-11-20T06:38:25;16.49;80.85
76104;HTU21D;64831;44.870;37.336;2022-11-20T06:40:52;16.56;80.59
76104;HTU21D;64831;44.870;37.336;2022-11-20T06:43:18;16.66;80.14
76104;HTU21D;64831;44.870;37.336;2022-11-20T06:45:44;16.78;79.53
76104;HTU21D;64831;44.870;37.336;2022-11-20T06:48:10;16.92;78.69
76104;HTU21D;64831;44.870;37.336;2022-11-20T06:50:37;17.02;77.91
76104;HTU21D;64831;44.870;37.336;2022-11-20T06:53:04;17.11;76.93
76104;HTU21D;64831;44.870;37.336;2022-11-20T06:55:31;17.21;76.41
76104;HTU21D;64831;44.870;37.336;2022-11-20T06:57:57;17.33;76.11
76104;HTU21D;64831;44.870;37.336;2022-11-20T07:00:24;17.46;75.54
76104;HTU21D;64831;44.870;37.336;2022-11-20T07:02:50;17.55;74.92
76104;HTU21D;64831;44.870;37.336;2022-11-20T07:05:17;17.63;74.23
76104;HTU21D;64831;44.870;37.336;2022-11-20T07:07:43;17.72;73.80
76104;HTU21D;64831;44.870;37.336;2022-11-20T07:10:09;17.83;73.15
76104;HTU21D;64831;44.870;37.336;2022-11-20T07:12:35;17.97;72.24
76104;HTU21D;64831;44.870;37.336;2022-11-20T07:15:01;18.09;71.91
76104;HTU21D;64831;44.870;37.336;2022-11-20T07:17:28;18.22;70.72
76104;HTU21D;64831;44.870;37.336;2022-11-20T07:19:54;18.28;69.97
76104;HTU21D;64831;44.870;37.336;2022-11-20T07:22:19;18.34;69.17
76104;HTU21D;64831;44.870;37.336;2022-11-20T07:24:47;18.37;69.10
76104;HTU21D;64831;44.870;37.336;2022-11-20T07:27:14;18.37;68.33
76104;HTU21D;64831;44.870;37.336;2022-11-20T07:29:39;18.34;68.23
76104;HTU21D;64831;44.870;37.336;2022-11-20T07:32:05;18.32;68.23
76104;HTU21D;64831;44.870;37.336;2022-11-20T07:34:31;18.30;68.17
76104;HTU21D;64831;44.870;37.336;2022-11-20T07:36:57;18.35;68.30
76104;HTU21D;64831;44.870;37.336;2022-11-20T07:39:23;18.37;67.92
76104;HTU21D;64831;44.870;37.336;2022-11-20T07:41:49;18.40;67.81
76104;HTU21D;64831;44.870;37.336;2022-11-20T07:44:15;18.43;67.57
76104;HTU21D;64831;44.870;37.336;2022-11-20T07:46:41;18.51;67.38
76104;HTU21D;64831;44.870;37.336;2022-11-20T07:49:07;18.65;67.01
76104;HTU21D;64831;44.870;37.336;2022-11-20T07:51:33;18.87;66.14
76104;HTU21D;64831;44.870;37.336;2022-11-20T07:53:59;19.14;65.46
76104;HTU21D;64831;44.870;37.336;2022-11-20T07:56:24;19.85;64.90
76104;HTU21D;64831;44.870;37.336;2022-11-20T07:58:50;20.81;62.34
76104;HTU21D;64831;44.870;37.336;2022-11-20T08:01:16;21.18;60.03
76104;HTU21D;64831;44.870;37.336;2022-11-20T08:03:42;21.18;58.88
76104;HTU21D;64831;44.870;37.336;2022-11-20T08:06:08;21.48;58.45
76104;HTU21D;64831;44.870;37.336;2022-11-20T08:08:34;22.27;56.85
76104;HTU21D;64831;44.870;37.336;2022-11-20T08:11:00;22.99;54.91
76104;HTU21D;64831;44.870;37.336;2022-11-20T08:13:45;23.91;53.74
76104;HTU21D;64831;44.870;37.336;2022-11-20T08:16:29;24.70;51.29
76104;HTU21D;64831;44.870;37.336;2022-11-20T08:18:55;25.13;49.22
76104;HTU21D;64831;44.870;37.336;2022-11-20T08:21:21;25.54;47.15
76104;HTU21D;64831;44.870;37.336;2022-11-20T08:23:47;25.75;45.77
76104;HTU21D;64831;44.870;37.336;2022-11-20T08:26:13;25.81;44.47
76104;HTU21D;64831;44.870;37.336;2022-11-20T08:28:39;25.66;44.38
76104;HTU21D;64831;44.870;37.336;2022-11-20T08:31:05;25.69;44.62
76104;HTU21D;64831;44.870;37.336;2022-11-20T08:33:31;25.51;44.23
76104;HTU21D;64831;44.870;37.336;2022-11-20T08:36:00;24.93;44.90
76104;HTU21D;64831;44.870;37.336;2022-11-20T08:38:26;24.63;45.93
76104;HTU21D;64831;44.870;37.336;2022-11-20T08:40:52;24.30;46.27
76104;HTU21D;64831;44.870;37.336;2022-11-20T08:43:40;23.81;47.83
76104;HTU21D;64831;44.870;37.336;2022-11-20T08:46:06;23.43;48.88
76104;HTU21D;64831;44.870;37.336;2022-11-20T08:48:31;23.23;49.75
76104;HTU21D;64831;44.870;37.336;2022-11-20T08:50:58;23.30;50.84
76104;HTU21D;64831;44.870;37.336;2022-11-20T08:53:26;23.56;50.17
76104;HTU21D;64831;44.870;37.336;2022-11-20T08:55:52;23.54;49.39
76104;HTU21D;64831;44.870;37.336;2022-11-20T08:58:18;23.59;49.31
76104;HTU21D;64831;44.870;37.336;2022-11-20T09:00:44;23.85;48.71
76104;HTU21D;64831;44.870;37.336;2022-11-20T09:03:09;23.81;48.03
76104;HTU21D;64831;44.870;37.336;2022-11-20T09:05:35;23.83;48.95
76104;HTU21D;64831;44.870;37.336;2022-11-20T09:08:01;24.19;48.44
76104;HTU21D;64831;44.870;37.336;2022-11-20T09:10:27;24.38;47.79
76104;HTU21D;64831;44.870;37.336;2022-11-20T09:12:53;24.17;47.64
76104;HTU21D;64831;44.870;37.336;2022-11-20T09:15:21;23.84;48.36
76104;HTU21D;64831;44.870;37.336;2022-11-20T09:17:56;23.53;49.12
76104;HTU21D;64831;44.870;37.336;2022-11-20T09:20:24;23.35;49.80
76104;HTU21D;64831;44.870;37.336;2022-11-20T09:22:50;23.27;50.12
76104;HTU21D;64831;44.870;37.336;2022-11-20T09:25:17;23.12;50.08
76104;HTU21D;64831;44.870;37.336;2022-11-20T09:27:43;22.97;49.98
76104;HTU21D;64831;44.870;37.336;2022-11-20T09:30:13;22.86;49.73
76104;HTU21D;64831;44.870;37.336;2022-11-20T09:32:39;22.79;49.50
76104;HTU21D;64831;44.870;37.336;2022-11-20T09:35:06;22.75;49.82
76104;HTU21D;64831;44.870;37.336;2022-11-20T09:37:34;22.69;50.09
76104;HTU21D;64831;44.870;37.336;2022-11-20T09:40:00;22.62;50.08
76104;HTU21D;64831;44.870;37.336;2022-11-20T09:42:50;22.52;50.18
76104;HTU21D;64831;44.870;37.336;2022-11-20T09:55:57;22.53;49.79
76104;HTU21D;64831;44.870;37.336;2022-11-20T09:58:44;22.34;49.61
76104;HTU21D;64831;44.870;37.336;2022-11-20T10:06:13;22.05;50.14
76104;HTU21D;64831;44.870;37.336;2022-11-20T10:08:51;21.98;50.28
76104;HTU21D;64831;44.870;37.336;2022-11-20T10:11:51;21.95;50.54
76104;HTU21D;64831;44.870;37.336;2022-11-20T10:19:44;21.70;50.99
76104;HTU21D;64831;44.870;37.336;2022-11-20T10:25:18;21.59;51.06
76104;HTU21D;64831;44.870;37.336;2022-11-20T10:28:16;21.57;50.94
76104;HTU21D;64831;44.870;37.336;2022-11-20T10:30:46;21.52;51.33
76104;HTU21D;64831;44.870;37.336;2022-11-20T10:33:19;21.42;51.46
76104;HTU21D;64831;44.870;37.336;2022-11-20T10:38:42;21.24;51.12
76104;HTU21D;64831;44.870;37.336;2022-11-20T10:41:15;21.23;51.31
76104;HTU21D;64831;44.870;37.336;2022-11-20T10:44:12;21.31;50.68
76104;HTU21D;64831;44.870;37.336;2022-11-20T10:46:44;21.36;50.95
76104;HTU21D;64831;44.870;37.336;2022-11-20T10:49:21;21.42;50.30
76104;HTU21D;64831;44.870;37.336;2022-11-20T10:55:04;21.27;49.98
76104;HTU21D;64831;44.870;37.336;2022-11-20T11:00:22;21.14;50.57
76104;HTU21D;64831;44.870;37.336;2022-11-20T11:02:53;21.10;50.63
76104;HTU21D;64831;44.870;37.336;2022-11-20T11:05:39;21.07;50.54
76104;HTU21D;64831;44.870;37.336;2022-11-20T11:08:15;21.03;50.82
76104;HTU21D;64831;44.870;37.336;2022-11-20T11:11:21;21.05;50.39
76104;HTU21D;64831;44.870;37.336;2022-11-20T11:13:48;21.09;50.59
76104;HTU21D;64831;44.870;37.336;2022-11-20T11:16:25;21.11;50.34
76104;HTU21D;64831;44.870;37.336;2022-11-20T11:19:03;21.14;50.09
76104;HTU21D;64831;44.870;37.336;2022-11-20T11:21:29;21.17;50.26
76104;HTU21D;64831;44.870;37.336;2022-11-20T13:33:52;18.73;61.28
76104;HTU21D;64831;44.870;37.336;2022-11-20T13:36:26;18.68;61.46
76104;HTU21D;64831;44.870;37.336;2022-11-20T13:38:54;18.64;61.66
76104;HTU21D;64831;44.870;37.336;2022-11-20T13:41:29;18.63;61.87
76104;HTU21D;64831;44.870;37.336;2022-11-20T13:46:57;18.57;62.11
76104;HTU21D;64831;44.870;37.336;2022-11-20T13:49:40;18.56;62.28
76104;HTU21D;64831;44.870;37.336;2022-11-20T13:57:56;18.46;62.67
76104;HTU21D;64831;44.870;37.336;2022-11-20T14:00:25;18.40;62.84
76104;HTU21D;64831;44.870;37.336;2022-11-20T14:03:11;18.35;63.08
76104;HTU21D;64831;44.870;37.336;2022-11-20T14:05:58;18.30;63.20
76104;HTU21D;64831;44.870;37.336;2022-11-20T14:08:46;18.27;63.37
76104;HTU21D;64831;44.870;37.336;2022-11-20T14:11:21;18.23;63.50
76104;HTU21D;64831;44.870;37.336;2022-11-20T14:14:10;18.20;63.57
76104;HTU21D;64831;44.870;37.336;2022-11-20T14:16:39;18.15;63.65
76104;HTU21D;64831;44.870;37.336;2022-11-20T14:21:52;18.15;63.77
76104;HTU21D;64831;44.870;37.336;2022-11-20T14:24:21;18.14;63.85
76104;HTU21D;64831;44.870;37.336;2022-11-20T14:26:48;18.15;63.88
76104;HTU21D;64831;44.870;37.336;2022-11-20T14:29:21;18.14;63.90
76104;HTU21D;64831;44.870;37.336;2022-11-20T14:31:51;18.14;63.92
76104;HTU21D;64831;44.870;37.336;2022-11-20T14:34:21;18.13;63.95
76104;HTU21D;64831;44.870;37.336;2022-11-20T14:36:55;18.12;63.95
76104;HTU21D;64831;44.870;37.336;2022-11-20T14:39:30;18.13;63.95
76104;HTU21D;64831;44.870;37.336;2022-11-20T14:41:57;18.09;63.98
76104;HTU21D;64831;44.870;37.336;2022-11-20T14:44:27;18.11;64.05
76104;HTU21D;64831;44.870;37.336;2022-11-20T14:46:55;18.08;64.08
76104;HTU21D;64831;44.870;37.336;2022-11-20T14:49:21;18.09;64.14
76104;HTU21D;64831;44.870;37.336;2022-11-20T14:51:58;18.09;64.18
76104;HTU21D;64831;44.870;37.336;2022-11-20T14:54:24;18.05;64.21
76104;HTU21D;64831;44.870;37.336;2022-11-20T14:56:59;18.04;64.30
76104;HTU21D;64831;44.870;37.336;2022-11-20T14:59:28;18.03;64.39
76104;HTU21D;64831;44.870;37.336;2022-11-20T15:04:22;18.02;64.47
76104;HTU21D;64831;44.870;37.336;2022-11-20T15:06:57;17.98;64.49
76104;HTU21D;64831;44.870;37.336;2022-11-20T15:09:23;17.98;64.53
76104;HTU21D;64831;44.870;37.336;2022-11-20T15:11:55;17.95;64.54
76104;HTU21D;64831;44.870;37.336;2022-11-20T15:14:23;17.93;64.61
76104;HTU21D;64831;44.870;37.336;2022-11-20T15:16:50;17.94;64.59
76104;HTU21D;64831;44.870;37.336;2022-11-20T15:19:24;17.94;64.56
76104;HTU21D;64831;44.870;37.336;2022-11-20T15:21:51;17.93;64.56
76104;HTU21D;64831;44.870;37.336;2022-11-20T15:24:17;17.93;64.52
76104;HTU21D;64831;44.870;37.336;2022-11-20T15:26:43;17.91;64.53
76104;HTU21D;64831;44.870;37.336;2022-11-20T15:29:12;17.93;64.59
76104;HTU21D;64831;44.870;37.336;2022-11-20T15:31:39;17.90;64.57
76104;HTU21D;64831;44.870;37.336;2022-11-20T15:34:13;17.88;64.63
76104;HTU21D;64831;44.870;37.336;2022-11-20T15:36:39;17.89;64.59
76104;HTU21D;64831;44.870;37.336;2022-11-20T15:39:06;17.85;64.59
76104;HTU21D;64831;44.870;37.336;2022-11-20T15:41:35;17.88;64.56
76104;HTU21D;64831;44.870;37.336;2022-11-20T15:44:03;17.89;64.50
76104;HTU21D;64831;44.870;37.336;2022-11-20T15:46:32;17.91;64.44
76104;HTU21D;64831;44.870;37.336;2022-11-20T15:49:03;17.92;64.44
76104;HTU21D;64831;44.870;37.336;2022-11-20T15:51:33;17.94;64.37
76104;HTU21D;64831;44.870;37.336;2022-11-20T15:54:00;17.94;64.34
76104;HTU21D;64831;44.870;37.336;2022-11-20T15:56:27;17.95;64.33
76104;HTU21D;64831;44.870;37.336;2022-11-20T15:58:53;17.96;64.34
76104;HTU21D;64831;44.870;37.336;2022-11-20T16:01:21;17.97;64.34
76104;HTU21D;64831;44.870;37.336;2022-11-20T16:03:48;17.96;64.34
76104;HTU21D;64831;44.870;37.336;2022-11-20T16:06:14;17.96;64.40
76104;HTU21D;64831;44.870;37.336;2022-11-20T16:08:44;17.96;64.43
76104;HTU21D;64831;44.870;37.336;2022-11-20T16:11:13;17.96;64.48
76104;HTU21D;64831;44.870;37.336;2022-11-20T16:13:40;17.94;64.54
76104;HTU21D;64831;44.870;37.336;2022-11-20T16:16:31;17.93;64.61
76104;HTU21D;64831;44.870;37.336;2022-11-20T16:18:58;17.93;64.68
76104;HTU21D;64831;44.870;37.336;2022-11-20T16:21:24;17.94;64.69
76104;HTU21D;64831;44.870;37.336;2022-11-20T16:24:02;17.93;64.66
76104;HTU21D;64831;44.870;37.336;2022-11-20T16:26:28;17.96;64.59
76104;HTU21D;64831;44.870;37.336;2022-11-20T16:28:54;17.98;64.54
76104;HTU21D;64831;44.870;37.336;2022-11-20T16:31:20;17.99;64.46
76104;HTU21D;64831;44.870;37.336;2022-11-20T16:33:55;18.05;64.26
76104;HTU21D;64831;44.870;37.336;2022-11-20T16:36:23;18.05;64.17
76104;HTU21D;64831;44.870;37.336;2022-11-20T16:38:53;18.07;64.04
76104;HTU21D;64831;44.870;37.336;2022-11-20T16:41:20;18.09;63.98
76104;HTU21D;64831;44.870;37.336;2022-11-20T16:43:50;18.09;63.85
76104;HTU21D;64831;44.870;37.336;2022-11-20T16:46:19;18.10;63.71
76104;HTU21D;64831;44.870;37.336;2022-11-20T16:48:51;18.12;63.59
76104;HTU21D;64831;44.870;37.336;2022-11-20T16:51:21;18.15;63.44
76104;HTU21D;64831;44.870;37.336;2022-11-20T16:53:47;18.17;63.31
76104;HTU21D;64831;44.870;37.336;2022-11-20T16:56:18;18.19;63.01
76104;HTU21D;64831;44.870;37.336;2022-11-20T16:58:46;18.23;62.82
76104;HTU21D;64831;44.870;37.336;2022-11-20T17:01:15;18.26;62.64
76104;HTU21D;64831;44.870;37.336;2022-11-20T17:03:42;18.28;62.46
76104;HTU21D;64831;44.870;37.336;2022-11-20T17:06:13;18.28;62.45
76104;HTU21D;64831;44.870;37.336;2022-11-20T17:08:40;18.26;62.44
76104;HTU21D;64831;44.870;37.336;2022-11-20T17:11:07;18.26;62.41
76104;HTU21D;64831;44.870;37.336;2022-11-20T17:13:35;18.28;62.26
76104;HTU21D;64831;44.870;37.336;2022-11-20T17:16:07;18.32;62.04
76104;HTU21D;64831;44.870;37.336;2022-11-20T17:18:33;18.32;62.02
76104;HTU21D;64831;44.870;37.336;2022-11-20T17:21:00;18.34;62.00
76104;HTU21D;64831;44.870;37.336;2022-11-20T17:23:34;18.34;62.05
76104;HTU21D;64831;44.870;37.336;2022-11-20T17:26:09;18.30;62.14
76104;HTU21D;64831;44.870;37.336;2022-11-20T17:28:37;18.26;62.28
76104;HTU21D;64831;44.870;37.336;2022-11-20T17:31:05;18.23;62.41
76104;HTU21D;64831;44.870;37.336;2022-11-20T17:33:34;18.17;62.58
76104;HTU21D;64831;44.870;37.336;2022-11-20T17:36:00;18.13;62.70
76104;HTU21D;64831;44.870;37.336;2022-11-20T17:38:26;18.09;62.85
76104;HTU21D;64831;44.870;37.336;2022-11-20T17:40:52;18.04;62.99
76104;HTU21D;64831;44.870;37.336;2022-11-20T17:43:18;18.00;63.17
76104;HTU21D;64831;44.870;37.336;2022-11-20T17:45:44;17.97;63.30
76104;HTU21D;64831;44.870;37.336;2022-11-20T17:48:11;17.98;63.35
76104;HTU21D;64831;44.870;37.336;2022-11-20T17:50:37;17.94;63.42
76104;HTU21D;64831;44.870;37.336;2022-11-20T17:53:03;17.95;63.45
76104;HTU21D;64831;44.870;37.336;2022-11-20T17:55:28;17.92;63.44
76104;HTU21D;64831;44.870;37.336;2022-11-20T17:58:14;17.91;63.48
76104;HTU21D;64831;44.870;37.336;2022-11-20T18:00:40;17.89;63.53
76104;HTU21D;64831;44.870;37.336;2022-11-20T18:03:06;17.88;63.55
76104;HTU21D;64831;44.870;37.336;2022-11-20T18:05:32;17.85;63.54
76104;HTU21D;64831;44.870;37.336;2022-11-20T18:07:58;17.89;63.47
76104;HTU21D;64831;44.870;37.336;2022-11-20T18:10:24;17.91;63.37
76104;HTU21D;64831;44.870;37.336;2022-11-20T18:12:50;17.91;63.29
76104;HTU21D;64831;44.870;37.336;2022-11-20T18:15:18;17.94;63.21
76104;HTU21D;64831;44.870;37.336;2022-11-20T18:17:44;17.91;63.20
76104;HTU21D;64831;44.870;37.336;2022-11-20T18:20:10;17.92;63.22